createdAt,value
2023-05-15T00:01:52.084Z,14.50
2023-05-15T00:04:20.179Z,14.50
2023-05-15T00:06:48.400Z,14.50
2023-05-15T00:09:18.418Z,14.50
2023-05-15T00:11:46.524Z,14.50
2023-05-15T00:14:14.880Z,14.50
2023-05-15T00:16:43.437Z,14.50
2023-05-15T00:19:11.982Z,14.50
2023-05-15T00:21:40.150Z,14.50
2023-05-15T00:24:08.564Z,14.50
2023-05-15T00:26:38.205Z,14.50
2023-05-15T00:29:06.354Z,14.40
2023-05-15T00:31:34.494Z,14.40
2023-05-15T00:34:02.501Z,14.40
2023-05-15T00:36:30.814Z,14.40
2023-05-15T00:38:58.883Z,14.40
2023-05-15T00:41:32.014Z,14.40
2023-05-15T00:44:03.213Z,14.40
2023-05-15T00:46:33.774Z,14.40
2023-05-15T00:49:02.942Z,14.40
2023-05-15T00:51:31.148Z,14.30
2023-05-15T00:53:59.715Z,14.30
2023-05-15T00:56:31.233Z,14.30
2023-05-15T00:59:01.905Z,14.30
2023-05-15T01:01:34.700Z,14.30
2023-05-15T01:04:04.539Z,14.30
2023-05-15T01:06:33.169Z,14.20
2023-05-15T01:09:04.106Z,14.30
2023-05-15T01:11:36.723Z,14.20
2023-05-15T01:14:08.736Z,14.20
2023-05-15T01:16:37.452Z,14.20
2023-05-15T01:19:06.515Z,14.20
2023-05-15T01:22:12.925Z,14.20
2023-05-15T01:25:06.090Z,14.20
2023-05-15T01:27:40.473Z,14.20
2023-05-15T01:30:16.193Z,14.10
2023-05-15T01:32:51.740Z,14.20
2023-05-15T01:35:30.009Z,14.10
2023-05-15T01:38:18.687Z,14.10
2023-05-15T01:40:49.409Z,14.10
2023-05-15T01:43:23.894Z,14.10
2023-05-15T01:45:52.186Z,14.10
2023-05-15T01:48:21.741Z,14.10
2023-05-15T01:50:52.832Z,14.00
2023-05-15T01:53:21.810Z,14.00
2023-05-15T01:55:51.862Z,14.00
2023-05-15T01:58:22.073Z,14.00
2023-05-15T02:00:51.551Z,13.90
2023-05-15T02:03:20.472Z,13.90
2023-05-15T02:05:49.340Z,13.90
2023-05-15T02:08:19.064Z,13.90
2023-05-15T02:10:49.384Z,13.90
2023-05-15T02:13:18.166Z,13.90
2023-05-15T02:15:48.204Z,13.80
2023-05-15T02:18:16.621Z,13.90
2023-05-15T02:20:44.655Z,13.90
2023-05-15T02:23:12.861Z,13.90
2023-05-15T02:25:48.709Z,13.90
2023-05-15T02:28:25.462Z,13.80
2023-05-15T02:30:59.373Z,13.80
2023-05-15T02:33:36.518Z,13.80
2023-05-15T02:36:10.180Z,13.80
2023-05-15T02:38:45.817Z,13.80
2023-05-15T02:41:14.661Z,13.80
2023-05-15T02:43:43.623Z,13.80
2023-05-15T02:46:14.728Z,13.80
2023-05-15T02:48:44.535Z,13.80
2023-05-15T02:51:13.045Z,13.80
2023-05-15T02:53:43.426Z,13.80
2023-05-15T02:56:12.656Z,13.80
2023-05-15T02:58:41.744Z,13.80
2023-05-15T03:01:09.920Z,13.80
2023-05-15T03:03:44.055Z,13.80
2023-05-15T03:06:12.148Z,13.80
2023-05-15T03:08:40.487Z,13.70
2023-05-15T03:11:08.532Z,13.80
2023-05-15T03:13:36.700Z,13.70
2023-05-15T03:16:05.885Z,13.70
2023-05-15T03:18:34.041Z,13.80
2023-05-15T03:21:03.440Z,13.70
2023-05-15T03:23:32.099Z,13.70
2023-05-15T03:26:00.183Z,13.70
2023-05-15T03:28:28.593Z,13.70
2023-05-15T03:30:56.935Z,13.70
2023-05-15T03:33:25.316Z,13.70
2023-05-15T03:35:55.933Z,13.70
2023-05-15T03:38:25.466Z,13.70
2023-05-15T03:40:53.729Z,13.70
2023-05-15T03:43:21.853Z,13.60
2023-05-15T03:45:50.427Z,13.60
2023-05-15T03:48:18.793Z,13.60
2023-05-15T03:50:47.220Z,13.60
2023-05-15T03:53:16.623Z,13.60
2023-05-15T03:55:46.710Z,13.60
2023-05-15T03:58:14.799Z,13.60
2023-05-15T04:00:44.084Z,13.60
2023-05-15T04:03:13.574Z,13.60
2023-05-15T04:05:41.830Z,13.60
2023-05-15T04:08:11.246Z,13.60
2023-05-15T04:10:39.400Z,13.60
2023-05-15T04:13:09.940Z,13.60
2023-05-15T04:15:38.406Z,13.60
2023-05-15T04:18:06.908Z,13.60
2023-05-15T04:20:35.528Z,13.60
2023-05-15T04:23:06.007Z,13.60
2023-05-15T04:28:18.026Z,13.60
2023-05-15T04:30:46.402Z,13.60
2023-05-15T04:33:14.769Z,13.60
2023-05-15T04:35:43.339Z,13.60
2023-05-15T04:38:11.616Z,13.60
2023-05-15T04:40:39.622Z,13.60
2023-05-15T04:43:08.291Z,13.60
2023-05-15T04:45:37.788Z,13.60
2023-05-15T04:48:06.646Z,13.60
2023-05-15T04:50:34.875Z,13.60
2023-05-15T04:53:03.572Z,13.70
2023-05-15T04:55:32.402Z,13.70
2023-05-15T04:58:01.920Z,13.70
2023-05-15T05:00:31.012Z,13.70
2023-05-15T05:03:00.778Z,13.70
2023-05-15T05:05:28.795Z,13.70
2023-05-15T05:07:56.733Z,13.70
2023-05-15T05:10:24.986Z,13.70
2023-05-15T05:12:52.966Z,13.70
2023-05-15T05:15:21.238Z,13.70
2023-05-15T05:17:49.220Z,13.70
2023-05-15T05:20:18.833Z,13.80
2023-05-15T05:22:46.844Z,13.80
2023-05-15T05:25:15.000Z,13.80
2023-05-15T05:27:43.226Z,13.80
2023-05-15T05:30:12.155Z,13.90
2023-05-15T05:32:40.525Z,13.90
2023-05-15T05:35:09.495Z,13.90
2023-05-15T05:37:41.026Z,13.90
2023-05-15T05:40:10.753Z,13.90
2023-05-15T05:42:38.992Z,13.90
2023-05-15T05:45:08.037Z,13.90
2023-05-15T05:47:36.023Z,13.90
2023-05-15T05:50:04.102Z,13.90
2023-05-15T05:52:32.156Z,13.90
2023-05-15T05:55:01.879Z,14.00
2023-05-15T05:57:31.214Z,14.00
2023-05-15T05:59:59.537Z,14.00
2023-05-15T06:02:27.759Z,14.10
2023-05-15T06:04:56.015Z,14.10
2023-05-15T06:07:24.331Z,14.10
2023-05-15T06:09:52.363Z,14.20
2023-05-15T06:12:23.043Z,14.20
2023-05-15T06:14:51.567Z,14.20
2023-05-15T06:17:19.948Z,14.20
2023-05-15T06:19:48.310Z,14.30
2023-05-15T06:22:16.341Z,14.30
2023-05-15T06:24:44.310Z,14.20
2023-05-15T06:27:12.733Z,14.30
2023-05-15T06:29:42.363Z,14.30
2023-05-15T06:32:10.745Z,14.40
2023-05-15T06:34:39.088Z,14.40
2023-05-15T06:37:08.198Z,14.40
2023-05-15T06:39:36.612Z,14.50
2023-05-15T06:42:04.930Z,14.50
2023-05-15T06:44:33.132Z,14.60
2023-05-15T06:47:02.980Z,14.60
2023-05-15T06:49:31.247Z,14.60
2023-05-15T06:52:01.786Z,14.70
2023-05-15T06:54:29.804Z,14.70
2023-05-15T06:56:57.823Z,14.70
2023-05-15T06:59:26.219Z,14.80
2023-05-15T07:01:56.129Z,14.80
2023-05-15T07:04:27.343Z,14.70
2023-05-15T07:06:55.463Z,14.80
2023-05-15T07:09:23.640Z,14.80
2023-05-15T07:11:53.470Z,14.90
2023-05-15T07:14:21.631Z,14.90
2023-05-15T07:16:49.697Z,14.90
2023-05-15T07:19:21.107Z,14.90
2023-05-15T07:21:51.054Z,14.90
2023-05-15T07:24:19.087Z,14.90
2023-05-15T07:26:58.218Z,14.90
2023-05-15T07:29:27.105Z,14.90
2023-05-15T07:31:55.441Z,14.90
2023-05-15T07:34:23.815Z,14.90
2023-05-15T07:36:53.198Z,14.90
2023-05-15T07:39:21.483Z,14.90
2023-05-15T07:41:49.641Z,14.90
2023-05-15T07:44:17.782Z,14.90
2023-05-15T07:46:47.112Z,14.90
2023-05-15T07:49:15.243Z,14.90
2023-05-15T07:51:43.582Z,14.90
2023-05-15T07:54:13.244Z,14.90
2023-05-15T07:56:41.661Z,14.80
2023-05-15T07:59:10.256Z,14.80
2023-05-15T08:01:38.431Z,14.90
2023-05-15T08:04:09.596Z,14.90
2023-05-15T08:06:39.136Z,14.80
2023-05-15T08:09:07.379Z,14.80
2023-05-15T08:11:37.342Z,14.80
2023-05-15T08:14:05.650Z,14.70
2023-05-15T08:16:34.121Z,14.70
2023-05-15T08:19:04.933Z,14.70
2023-05-15T08:21:33.077Z,14.70
2023-05-15T08:24:01.799Z,14.70
2023-05-15T08:26:31.185Z,14.70
2023-05-15T08:29:00.761Z,14.70
2023-05-15T08:31:28.863Z,14.70
2023-05-15T08:33:57.310Z,14.70
2023-05-15T08:36:25.945Z,14.70
2023-05-15T08:38:54.300Z,14.70
2023-05-15T08:41:39.951Z,14.70
2023-05-15T08:44:11.927Z,14.70
2023-05-15T08:46:40.791Z,14.70
2023-05-15T08:49:15.785Z,14.70
2023-05-15T08:51:44.488Z,14.70
2023-05-15T08:54:13.023Z,14.80
2023-05-15T08:56:42.749Z,14.80
2023-05-15T08:59:12.311Z,14.80
2023-05-15T09:01:40.504Z,14.80
2023-05-15T09:04:09.137Z,14.80
2023-05-15T09:06:38.557Z,14.80
2023-05-15T09:09:06.740Z,14.80
2023-05-15T09:11:36.506Z,14.90
2023-05-15T09:14:04.732Z,14.80
2023-05-15T09:16:34.729Z,14.80
2023-05-15T09:19:03.860Z,14.80
2023-05-15T09:21:32.467Z,14.80
2023-05-15T09:24:18.980Z,14.80
2023-05-15T09:26:49.141Z,14.80
2023-05-15T09:29:18.937Z,14.80
2023-05-15T09:31:49.554Z,14.90
2023-05-15T09:34:17.812Z,14.90
2023-05-15T09:36:45.970Z,14.90
2023-05-15T09:39:14.079Z,14.90
2023-05-15T09:41:45.193Z,15.00
2023-05-15T09:44:21.789Z,15.00
2023-05-15T09:46:52.249Z,15.00
2023-05-15T09:49:21.269Z,15.00
2023-05-15T09:51:50.532Z,15.00
2023-05-15T09:54:19.777Z,15.10
2023-05-15T09:56:48.854Z,15.10
2023-05-15T09:59:18.750Z,15.10
2023-05-15T10:01:49.237Z,15.10
2023-05-15T10:04:18.939Z,15.10
2023-05-15T10:06:48.607Z,15.10
2023-05-15T10:09:17.539Z,15.10
2023-05-15T10:11:52.944Z,15.10
2023-05-15T10:14:23.616Z,15.10
2023-05-15T10:16:52.862Z,15.10
2023-05-15T10:19:26.548Z,15.20
2023-05-15T10:21:57.106Z,15.20
2023-05-15T10:24:30.379Z,15.20
2023-05-15T10:26:58.896Z,15.30
2023-05-15T10:29:30.067Z,15.30
2023-05-15T10:31:59.320Z,15.40
2023-05-15T10:34:29.889Z,15.40
2023-05-15T10:36:58.488Z,15.40
2023-05-15T10:39:30.260Z,15.40
2023-05-15T10:42:01.270Z,15.40
2023-05-15T10:44:29.324Z,15.40
2023-05-15T10:46:57.627Z,15.40
2023-05-15T10:49:28.273Z,15.40
2023-05-15T10:52:00.396Z,15.30
2023-05-15T10:54:30.042Z,15.30
2023-05-15T10:56:58.401Z,15.30
2023-05-15T10:59:33.216Z,15.20
2023-05-15T11:02:23.639Z,15.20
2023-05-15T11:04:57.422Z,15.10
2023-05-15T11:07:29.588Z,15.00
2023-05-15T11:09:58.198Z,15.00
2023-05-15T11:12:26.553Z,15.00
2023-05-15T11:15:20.069Z,15.00
2023-05-15T11:18:04.001Z,15.00
2023-05-15T11:20:39.016Z,14.90
2023-05-15T11:23:08.633Z,14.90
2023-05-15T11:25:38.062Z,14.80
2023-05-15T11:28:07.790Z,14.80
2023-05-15T11:30:37.777Z,14.80
2023-05-15T11:33:11.545Z,14.80
2023-05-15T11:35:42.411Z,14.80
2023-05-15T11:38:16.396Z,14.80
2023-05-15T11:40:52.744Z,14.70
2023-05-15T11:43:22.556Z,14.70
2023-05-15T11:45:56.133Z,14.60
2023-05-15T11:48:25.726Z,14.60
2023-05-15T11:50:54.016Z,14.50
2023-05-15T11:53:24.572Z,14.50
2023-05-15T11:55:54.628Z,14.50
2023-05-15T11:58:24.601Z,14.50
2023-05-15T12:00:54.664Z,14.50
2023-05-15T12:03:25.689Z,14.50
2023-05-15T12:05:59.623Z,14.50
2023-05-15T12:08:33.286Z,14.50
2023-05-15T12:11:02.226Z,14.60
2023-05-15T12:13:30.674Z,14.50
2023-05-15T12:15:59.129Z,14.50
2023-05-15T12:18:27.312Z,14.50
2023-05-15T12:20:56.182Z,14.40
2023-05-15T12:23:26.849Z,14.40
2023-05-15T12:26:01.227Z,14.40
2023-05-15T12:28:30.360Z,14.40
2023-05-15T12:31:00.525Z,14.50
2023-05-15T12:33:29.039Z,14.50
2023-05-15T12:36:01.175Z,14.50
2023-05-15T12:38:30.840Z,14.50
2023-05-15T12:41:01.403Z,14.50
2023-05-15T12:43:29.656Z,14.50
2023-05-15T12:45:58.849Z,14.50
2023-05-15T12:48:32.634Z,14.50
2023-05-15T12:51:07.787Z,14.40
2023-05-15T12:53:36.417Z,14.30
2023-05-15T12:56:07.875Z,14.20
2023-05-15T12:58:37.336Z,14.20
2023-05-15T13:01:05.564Z,14.20
2023-05-15T13:03:34.314Z,14.10
2023-05-15T13:06:03.687Z,14.10
2023-05-15T13:08:31.792Z,14.20
2023-05-15T13:11:01.226Z,14.20
2023-05-15T13:13:45.404Z,14.20
2023-05-15T13:16:21.287Z,14.30
2023-05-15T13:18:50.880Z,14.30
2023-05-15T13:21:19.258Z,14.40
2023-05-15T13:23:47.539Z,14.40
2023-05-15T13:26:16.749Z,14.30
2023-05-15T13:28:46.159Z,14.30
2023-05-15T13:31:15.618Z,14.20
2023-05-15T13:33:43.956Z,14.30
2023-05-15T13:36:17.975Z,14.30
2023-05-15T13:38:47.539Z,14.20
2023-05-15T13:41:15.535Z,14.20
2023-05-15T13:43:44.931Z,14.20
2023-05-15T13:46:14.068Z,14.20
2023-05-15T13:48:42.333Z,14.10
2023-05-15T13:51:10.328Z,14.10
2023-05-15T13:53:38.313Z,14.10
2023-05-15T13:56:06.936Z,14.10
2023-05-15T13:58:35.088Z,14.00
2023-05-15T14:01:08.086Z,14.10
2023-05-15T14:03:36.573Z,14.10
2023-05-15T14:06:05.977Z,14.10
2023-05-15T14:08:37.223Z,14.10
2023-05-15T14:11:05.278Z,14.10
2023-05-15T14:13:35.095Z,14.10
2023-05-15T14:16:04.467Z,14.10
2023-05-15T14:18:32.888Z,14.00
2023-05-15T14:21:01.173Z,14.00
2023-05-15T14:23:29.183Z,14.10
2023-05-15T14:25:57.366Z,14.10
2023-05-15T14:28:25.433Z,14.10
2023-05-15T14:30:53.791Z,14.20
2023-05-15T14:33:23.206Z,14.10
2023-05-15T14:35:51.271Z,14.10
2023-05-15T14:38:19.257Z,14.20
2023-05-15T14:40:47.350Z,14.20
2023-05-15T14:43:17.988Z,14.20
2023-05-15T14:45:46.223Z,14.20
2023-05-15T14:48:16.088Z,14.20
2023-05-15T14:50:47.366Z,14.20
2023-05-15T14:53:17.132Z,14.10
2023-05-15T14:55:45.093Z,14.10
2023-05-15T14:58:13.128Z,14.10
2023-05-15T15:00:43.560Z,14.10
2023-05-15T15:03:14.610Z,14.00
2023-05-15T15:05:49.491Z,14.00
2023-05-15T15:08:19.588Z,14.00
2023-05-15T15:10:47.576Z,14.00
2023-05-15T15:13:16.631Z,14.00
2023-05-15T15:15:44.901Z,14.00
2023-05-15T15:18:13.078Z,14.00
2023-05-15T15:20:42.866Z,14.00
2023-05-15T15:23:12.231Z,14.00
2023-05-15T15:25:40.382Z,14.00
2023-05-15T15:28:08.715Z,14.00
2023-05-15T15:30:37.078Z,14.00
2023-05-15T15:33:05.377Z,14.00
2023-05-15T15:35:33.520Z,14.00
2023-05-15T15:38:01.655Z,14.00
2023-05-15T15:40:31.334Z,14.00
2023-05-15T15:43:01.887Z,13.90
2023-05-15T15:45:30.060Z,13.90
2023-05-15T15:47:58.116Z,13.90
2023-05-15T15:50:26.645Z,13.80
2023-05-15T15:52:55.437Z,13.80
2023-05-15T15:55:23.519Z,13.80
2023-05-15T15:57:52.990Z,13.80
2023-05-15T16:00:22.613Z,13.80
2023-05-15T16:02:50.746Z,13.70
2023-05-15T16:05:20.146Z,13.70
2023-05-15T16:07:49.826Z,13.70
2023-05-15T16:10:19.162Z,13.60
2023-05-15T16:12:47.427Z,13.60
2023-05-15T16:17:48.413Z,13.60
2023-05-15T16:20:16.738Z,13.60
2023-05-15T16:22:44.783Z,13.50
2023-05-15T16:25:12.821Z,13.50
2023-05-15T16:27:40.846Z,13.40
2023-05-15T16:30:11.460Z,13.40
2023-05-15T16:32:48.883Z,13.40
2023-05-15T16:35:17.219Z,13.40
2023-05-15T16:37:48.227Z,13.30
2023-05-15T16:40:16.367Z,13.30
2023-05-15T16:42:44.572Z,13.30
2023-05-15T16:45:13.861Z,13.30
2023-05-15T16:47:46.606Z,13.30
2023-05-15T16:50:17.328Z,13.30
2023-05-15T16:52:47.709Z,13.30
2023-05-15T16:55:18.681Z,13.20
2023-05-15T16:57:48.874Z,13.20
2023-05-15T17:00:17.974Z,13.20
2023-05-15T17:02:47.787Z,13.10
2023-05-15T17:05:16.028Z,13.10
2023-05-15T17:07:45.284Z,13.10
2023-05-15T17:10:16.321Z,13.10
2023-05-15T17:12:44.476Z,13.10
2023-05-15T17:15:13.095Z,13.10
2023-05-15T17:17:41.179Z,13.10
2023-05-15T17:20:12.305Z,13.10
2023-05-15T17:22:40.511Z,13.10
2023-05-15T17:25:09.203Z,13.10
2023-05-15T17:27:39.777Z,13.10
2023-05-15T17:30:09.384Z,13.10
2023-05-15T17:32:37.705Z,13.10
2023-05-15T17:35:06.208Z,13.10
2023-05-15T17:37:35.646Z,13.10
2023-05-15T17:40:03.689Z,13.10
2023-05-15T17:42:31.949Z,13.10
2023-05-15T17:45:02.588Z,13.10
2023-05-15T17:47:30.839Z,13.00
2023-05-15T17:50:01.827Z,13.00
2023-05-15T17:52:30.513Z,13.00
2023-05-15T17:55:21.540Z,13.00
2023-05-15T17:57:50.395Z,13.00
2023-05-15T18:00:19.570Z,13.00
2023-05-15T18:03:08.411Z,13.00
2023-05-15T18:06:00.642Z,13.00
2023-05-15T18:08:29.342Z,13.00
2023-05-15T18:11:04.016Z,13.00
2023-05-15T18:13:36.939Z,12.90
2023-05-15T18:16:06.397Z,12.90
2023-05-15T18:19:00.744Z,12.90
2023-05-15T18:21:29.346Z,12.90
2023-05-15T18:24:01.195Z,12.90
2023-05-15T18:26:32.183Z,12.90
2023-05-15T18:29:00.812Z,12.90
2023-05-15T18:31:28.891Z,12.90
2023-05-15T18:33:59.074Z,12.80
2023-05-15T18:36:27.175Z,12.80
2023-05-15T18:38:56.053Z,12.80
2023-05-15T18:41:24.439Z,12.80
2023-05-15T18:43:58.114Z,12.80
2023-05-15T18:46:31.368Z,12.80
2023-05-15T18:49:22.969Z,12.80
2023-05-15T18:51:56.771Z,12.80
2023-05-15T18:54:25.323Z,12.80
2023-05-15T18:57:16.601Z,12.80
2023-05-15T18:59:47.798Z,12.70
2023-05-15T19:02:20.467Z,12.80
2023-05-15T19:05:09.416Z,12.80
2023-05-15T19:07:38.882Z,12.80
2023-05-15T19:10:13.254Z,12.80
2023-05-15T19:12:41.976Z,12.80
2023-05-15T19:15:15.783Z,12.80
2023-05-15T19:17:44.582Z,12.70
2023-05-15T19:20:16.427Z,12.70
2023-05-15T19:22:47.117Z,12.70
2023-05-15T19:25:16.009Z,12.80
2023-05-15T19:27:48.503Z,12.70
2023-05-15T19:30:20.150Z,12.70
2023-05-15T19:32:49.116Z,12.70
2023-05-15T19:35:38.683Z,12.70
2023-05-15T19:38:08.677Z,12.70
2023-05-15T19:40:37.616Z,12.80
2023-05-15T19:43:07.921Z,12.70
2023-05-15T19:45:42.707Z,12.70
2023-05-15T19:48:11.748Z,12.70
2023-05-15T19:50:42.954Z,12.60
2023-05-15T19:53:12.227Z,12.60
2023-05-15T19:55:40.969Z,12.60
2023-05-15T19:58:12.245Z,12.60
2023-05-15T20:00:44.061Z,12.60
2023-05-15T20:03:17.109Z,12.60
2023-05-15T20:05:47.346Z,12.50
2023-05-15T20:08:17.201Z,12.50
2023-05-15T20:10:45.496Z,12.40
2023-05-15T20:13:14.158Z,12.50
2023-05-15T20:15:45.238Z,12.40
2023-05-15T20:18:16.548Z,12.40
2023-05-15T20:20:46.505Z,12.40
2023-05-15T20:23:35.760Z,12.40
2023-05-15T20:26:05.030Z,12.40
2023-05-15T20:28:33.393Z,12.30
2023-05-15T20:31:03.058Z,12.40
2023-05-15T20:33:31.399Z,12.40
2023-05-15T20:36:20.478Z,12.30
2023-05-15T20:38:50.667Z,12.40
2023-05-15T20:41:20.352Z,12.40
2023-05-15T20:43:51.183Z,12.30
2023-05-15T20:46:22.521Z,12.30
2023-05-15T20:48:53.366Z,12.30
2023-05-15T20:51:22.795Z,12.30
2023-05-15T20:53:50.766Z,12.30
2023-05-15T20:56:21.198Z,12.30
2023-05-15T20:58:49.874Z,12.30
2023-05-15T21:01:24.957Z,12.30
2023-05-15T21:03:54.865Z,12.30
2023-05-15T21:06:23.275Z,12.20
2023-05-15T21:08:51.497Z,12.20
2023-05-15T21:11:19.697Z,12.10
2023-05-15T21:13:48.847Z,12.20
2023-05-15T21:16:18.645Z,12.20
2023-05-15T21:18:49.007Z,12.10
2023-05-15T21:21:19.074Z,12.20
2023-05-15T21:23:48.113Z,12.20
2023-05-15T21:26:17.146Z,12.20
2023-05-15T21:28:45.691Z,12.20
2023-05-15T21:31:15.378Z,12.20
2023-05-15T21:33:43.969Z,12.20
2023-05-15T21:36:12.708Z,12.20
2023-05-15T21:38:43.957Z,12.20
2023-05-15T21:41:12.420Z,12.20
2023-05-15T21:43:40.935Z,12.20
2023-05-15T21:46:09.092Z,12.20
2023-05-15T21:48:37.809Z,12.20
2023-05-15T21:51:07.866Z,12.20
2023-05-15T21:53:36.411Z,12.20
2023-05-15T21:56:07.519Z,12.20
2023-05-15T21:58:36.486Z,12.20
2023-05-15T22:01:04.981Z,12.10
2023-05-15T22:03:34.564Z,12.10
2023-05-15T22:06:04.262Z,12.20
2023-05-15T22:08:33.085Z,12.10
2023-05-15T22:11:07.152Z,12.20
2023-05-15T22:13:35.951Z,12.10
2023-05-15T22:16:08.117Z,12.10
2023-05-15T22:18:37.768Z,12.10
2023-05-15T22:21:06.773Z,12.10
2023-05-15T22:23:34.854Z,12.20
2023-05-15T22:26:05.676Z,12.10
2023-05-15T22:28:33.660Z,12.10
2023-05-15T22:31:03.536Z,12.10
2023-05-15T22:33:32.063Z,12.10
2023-05-15T22:36:03.101Z,12.10
2023-05-15T22:38:32.799Z,12.10
2023-05-15T22:41:21.118Z,12.00
2023-05-15T22:43:50.570Z,12.00
2023-05-15T22:46:18.629Z,12.00
2023-05-15T22:48:46.640Z,12.00
2023-05-15T22:51:17.575Z,12.00
2023-05-15T22:53:46.005Z,12.00
2023-05-15T22:56:14.650Z,12.00
2023-05-15T22:58:50.186Z,12.00
2023-05-15T23:01:26.868Z,12.00
2023-05-15T23:03:55.030Z,12.00
2023-05-15T23:06:23.153Z,11.90
2023-05-15T23:08:52.237Z,12.00
2023-05-15T23:11:21.318Z,12.00
2023-05-15T23:13:49.782Z,12.00
2023-05-15T23:16:21.128Z,12.00
2023-05-15T23:18:49.808Z,11.90
2023-05-15T23:21:17.776Z,11.90
2023-05-15T23:23:47.002Z,11.80
2023-05-15T23:26:16.890Z,11.80
2023-05-15T23:28:49.490Z,11.90
2023-05-15T23:31:17.754Z,11.80
2023-05-15T23:33:47.457Z,11.80
2023-05-15T23:36:15.752Z,11.90
2023-05-15T23:38:43.746Z,11.90
2023-05-15T23:41:13.314Z,11.90
2023-05-15T23:43:41.693Z,11.90
2023-05-15T23:46:09.755Z,11.90
2023-05-15T23:48:37.726Z,11.80
2023-05-15T23:51:07.197Z,11.90
2023-05-15T23:53:35.735Z,11.90
2023-05-15T23:56:05.908Z,11.90
2023-05-15T23:58:36.648Z,11.90
